createdAt,value
2022-09-16T00:01:13.130Z,13.97
2022-09-16T00:03:42.228Z,13.94
2022-09-16T00:06:19.080Z,13.93
2022-09-16T00:08:47.415Z,13.93
2022-09-16T00:11:17.601Z,13.96
2022-09-16T00:13:45.657Z,13.96
2022-09-16T00:16:19.659Z,13.96
2022-09-16T00:18:48.196Z,13.97
2022-09-16T00:21:16.392Z,13.99
2022-09-16T00:23:44.370Z,13.94
2022-09-16T00:26:12.438Z,13.94
2022-09-16T00:28:41.730Z,13.94
2022-09-16T00:31:10.292Z,13.93
2022-09-16T00:33:38.291Z,13.92
2022-09-16T00:36:08.614Z,13.89
2022-09-16T00:38:37.040Z,13.89
2022-09-16T00:41:06.201Z,13.87
2022-09-16T00:43:50.581Z,13.85
2022-09-16T00:46:22.217Z,13.86
2022-09-16T00:48:51.032Z,13.90
2022-09-16T00:51:20.954Z,13.90
2022-09-16T00:53:56.882Z,13.89
2022-09-16T00:56:27.601Z,13.88
2022-09-16T00:59:04.031Z,13.88
2022-09-16T01:01:32.992Z,13.87
2022-09-16T01:04:04.579Z,13.84
2022-09-16T01:06:36.911Z,13.84
2022-09-16T01:09:05.209Z,13.81
2022-09-16T01:11:33.476Z,13.80
2022-09-16T01:14:19.089Z,13.75
2022-09-16T01:16:58.142Z,13.71
2022-09-16T01:19:44.791Z,13.70
2022-09-16T01:22:24.869Z,13.71
2022-09-16T01:25:00.200Z,13.69
2022-09-16T01:27:45.424Z,13.72
2022-09-16T01:30:45.804Z,13.68
2022-09-16T01:33:24.680Z,13.68
2022-09-16T01:36:07.296Z,13.67
2022-09-16T01:38:53.604Z,13.71
2022-09-16T01:41:29.195Z,13.72
2022-09-16T01:44:04.035Z,13.70
2022-09-16T01:46:40.877Z,13.67
2022-09-16T01:49:19.349Z,13.65
2022-09-16T01:51:54.554Z,13.66
2022-09-16T01:54:28.893Z,13.65
2022-09-16T01:57:03.522Z,13.64
2022-09-16T01:59:38.793Z,13.62
2022-09-16T02:02:13.053Z,13.56
2022-09-16T02:04:46.492Z,13.54
2022-09-16T02:07:18.125Z,13.49
2022-09-16T02:09:52.116Z,13.47
2022-09-16T02:12:25.012Z,13.46
2022-09-16T02:14:57.024Z,13.45
2022-09-16T02:17:28.979Z,13.43
2022-09-16T02:20:03.836Z,13.45
2022-09-16T02:22:35.922Z,13.46
2022-09-16T02:25:06.239Z,13.53
2022-09-16T02:27:37.950Z,13.52
2022-09-16T02:30:09.191Z,13.52
2022-09-16T02:32:40.934Z,13.52
2022-09-16T02:35:13.283Z,13.62
2022-09-16T02:37:46.186Z,13.58
2022-09-16T02:40:18.050Z,13.61
2022-09-16T02:42:46.387Z,13.51
2022-09-16T02:45:14.909Z,13.63
2022-09-16T02:47:49.266Z,13.60
2022-09-16T02:50:26.218Z,13.61
2022-09-16T02:52:59.724Z,13.70
2022-09-16T02:55:39.325Z,13.67
2022-09-16T02:58:08.484Z,13.73
2022-09-16T03:00:41.155Z,13.74
2022-09-16T03:03:10.481Z,14.04
2022-09-16T03:06:00.351Z,13.83
2022-09-16T03:08:28.470Z,13.76
2022-09-16T03:10:59.598Z,13.72
2022-09-16T03:13:35.495Z,13.65
2022-09-16T03:16:09.746Z,13.59
2022-09-16T03:19:05.363Z,13.67
2022-09-16T03:21:46.523Z,13.58
2022-09-16T03:24:21.704Z,13.66
2022-09-16T03:26:58.166Z,13.60
2022-09-16T03:29:32.221Z,13.55
2022-09-16T03:32:08.613Z,13.50
2022-09-16T03:34:40.930Z,13.43
2022-09-16T03:37:13.206Z,13.40
2022-09-16T03:39:42.385Z,13.40
2022-09-16T03:42:11.641Z,13.40
2022-09-16T03:44:41.390Z,13.39
2022-09-16T03:47:09.684Z,13.34
2022-09-16T03:49:37.995Z,13.26
2022-09-16T03:52:07.004Z,13.21
2022-09-16T03:54:36.965Z,13.18
2022-09-16T03:57:05.563Z,13.15
2022-09-16T03:59:33.600Z,13.14
2022-09-16T04:02:02.078Z,13.13
2022-09-16T04:04:30.211Z,13.11
2022-09-16T04:06:58.248Z,13.09
2022-09-16T04:09:26.361Z,13.10
2022-09-16T04:11:55.665Z,13.07
2022-09-16T04:14:23.773Z,13.06
2022-09-16T04:16:51.823Z,13.04
2022-09-16T04:19:20.065Z,13.08
2022-09-16T04:21:48.279Z,13.08
2022-09-16T04:24:16.224Z,13.09
2022-09-16T04:26:44.263Z,13.06
2022-09-16T04:29:13.636Z,13.08
2022-09-16T04:31:41.902Z,13.05
2022-09-16T04:34:11.781Z,13.00
2022-09-16T04:36:40.498Z,13.00
2022-09-16T04:39:08.514Z,12.97
2022-09-16T04:41:36.457Z,12.95
2022-09-16T04:44:04.438Z,12.93
2022-09-16T04:46:34.258Z,12.93
2022-09-16T04:49:03.705Z,12.92
2022-09-16T04:51:32.215Z,12.92
2022-09-16T04:54:01.373Z,12.94
2022-09-16T04:56:31.411Z,12.95
2022-09-16T04:59:01.306Z,12.93
2022-09-16T05:01:31.165Z,12.94
2022-09-16T05:04:03.155Z,12.93
2022-09-16T05:06:33.359Z,12.94
2022-09-16T05:09:01.953Z,12.95
2022-09-16T05:11:32.214Z,12.95
2022-09-16T05:14:00.997Z,12.95
2022-09-16T05:16:29.047Z,12.95
2022-09-16T05:19:01.353Z,12.94
2022-09-16T05:21:29.870Z,12.91
2022-09-16T05:24:02.263Z,12.91
2022-09-16T05:26:32.383Z,12.90
2022-09-16T05:29:05.359Z,12.94
2022-09-16T05:31:35.109Z,12.95
2022-09-16T05:34:06.172Z,12.94
2022-09-16T05:36:36.535Z,12.95
2022-09-16T05:39:22.755Z,12.97
2022-09-16T05:41:55.066Z,12.98
2022-09-16T05:44:23.450Z,12.97
2022-09-16T05:46:51.476Z,13.00
2022-09-16T05:49:21.597Z,13.03
2022-09-16T05:51:50.695Z,13.08
2022-09-16T05:54:19.590Z,13.13
2022-09-16T05:56:48.491Z,13.19
2022-09-16T05:59:17.726Z,13.26
2022-09-16T06:01:46.581Z,13.33
2022-09-16T06:04:15.972Z,13.42
2022-09-16T06:06:46.744Z,13.50
2022-09-16T06:09:16.681Z,13.57
2022-09-16T06:11:46.706Z,13.66
2022-09-16T06:14:16.050Z,13.74
2022-09-16T06:16:44.681Z,13.83
2022-09-16T06:19:14.445Z,13.90
2022-09-16T06:21:43.582Z,13.94
2022-09-16T06:24:14.151Z,14.03
2022-09-16T06:26:44.478Z,14.12
2022-09-16T06:29:13.167Z,14.24
2022-09-16T06:31:41.721Z,14.30
2022-09-16T06:34:15.307Z,14.55
2022-09-16T06:36:45.452Z,14.60
2022-09-16T06:39:16.982Z,14.65
2022-09-16T06:41:45.892Z,14.76
2022-09-16T06:44:13.970Z,14.73
2022-09-16T06:46:41.978Z,14.99
2022-09-16T06:49:11.374Z,14.94
2022-09-16T06:51:39.388Z,14.84
2022-09-16T06:54:09.025Z,14.92
2022-09-16T06:56:39.626Z,14.99
2022-09-16T06:59:08.559Z,15.17
2022-09-16T07:01:36.662Z,15.33
2022-09-16T07:04:06.514Z,15.29
2022-09-16T07:09:22.686Z,15.43
2022-09-16T07:11:51.987Z,15.35
2022-09-16T07:14:19.962Z,15.24
2022-09-16T07:16:47.966Z,15.60
2022-09-16T07:19:15.983Z,15.44
2022-09-16T07:21:44.010Z,15.52
2022-09-16T07:24:13.181Z,15.56
2022-09-16T07:26:43.055Z,15.73
2022-09-16T07:29:14.143Z,15.68
2022-09-16T07:31:42.928Z,15.60
2022-09-16T07:34:14.274Z,15.73
2022-09-16T07:36:44.330Z,15.90
2022-09-16T07:39:13.467Z,15.99
2022-09-16T07:41:43.816Z,16.04
2022-09-16T07:44:15.032Z,15.90
2022-09-16T07:46:43.480Z,16.38
2022-09-16T07:49:14.217Z,16.44
2022-09-16T07:51:42.389Z,16.56
2022-09-16T07:54:13.742Z,16.56
2022-09-16T07:56:42.685Z,16.65
2022-09-16T07:59:18.552Z,16.63
2022-09-16T08:01:47.942Z,16.20
2022-09-16T08:04:16.048Z,16.69
2022-09-16T08:06:44.274Z,16.53
2022-09-16T08:09:37.817Z,16.55
2022-09-16T08:12:03.316Z,16.87
2022-09-16T08:14:33.103Z,17.01
2022-09-16T08:17:01.835Z,16.66
2022-09-16T08:19:29.777Z,17.05
2022-09-16T08:21:57.722Z,17.10
2022-09-16T08:24:26.492Z,16.95
2022-09-16T08:29:27.403Z,16.87
2022-09-16T08:31:56.745Z,16.53
2022-09-16T08:34:25.035Z,16.59
2022-09-16T08:36:53.123Z,16.53
2022-09-16T08:39:21.625Z,16.65
2022-09-16T08:42:06.049Z,16.45
2022-09-16T08:44:44.739Z,16.41
2022-09-16T08:47:28.490Z,16.88
2022-09-16T08:49:58.094Z,17.12
2022-09-16T08:52:32.037Z,17.51
2022-09-16T08:55:04.508Z,18.42
2022-09-16T08:57:40.036Z,18.34
2022-09-16T09:00:15.026Z,18.48
2022-09-16T09:02:52.874Z,18.62
2022-09-16T09:05:28.510Z,18.22
2022-09-16T09:08:20.691Z,18.11
2022-09-16T09:10:51.841Z,17.68
2022-09-16T09:13:45.825Z,17.75
2022-09-16T09:16:23.243Z,17.75
2022-09-16T09:19:07.360Z,17.74
2022-09-16T09:21:44.779Z,17.46
2022-09-16T09:24:29.854Z,17.57
2022-09-16T09:27:03.568Z,17.49
2022-09-16T09:29:42.525Z,17.59
2022-09-16T09:32:22.115Z,18.02
2022-09-16T09:34:57.639Z,18.22
2022-09-16T09:37:45.302Z,18.27
2022-09-16T09:40:18.767Z,18.91
2022-09-16T09:42:51.390Z,19.19
2022-09-16T09:45:24.198Z,19.52
2022-09-16T09:47:56.550Z,19.48
2022-09-16T09:50:31.987Z,19.66
2022-09-16T09:53:10.273Z,19.75
2022-09-16T09:55:39.719Z,19.25
2022-09-16T09:58:18.854Z,18.50
2022-09-16T10:00:46.954Z,18.86
2022-09-16T10:03:17.139Z,18.67
2022-09-16T10:05:48.511Z,18.47
2022-09-16T10:08:26.224Z,18.66
2022-09-16T10:10:55.771Z,18.39
2022-09-16T10:13:25.511Z,17.78
2022-09-16T10:15:55.952Z,17.40
2022-09-16T10:18:28.473Z,17.31
2022-09-16T10:21:03.467Z,17.54
2022-09-16T10:23:32.115Z,17.70
2022-09-16T10:26:17.312Z,17.83
2022-09-16T10:28:59.025Z,17.65
2022-09-16T10:31:34.453Z,17.57
2022-09-16T10:34:05.369Z,17.46
2022-09-16T10:36:36.507Z,17.46
2022-09-16T10:39:06.003Z,17.65
2022-09-16T10:41:36.098Z,17.75
2022-09-16T10:44:22.014Z,18.76
2022-09-16T10:46:56.752Z,19.71
2022-09-16T10:49:30.518Z,20.56
2022-09-16T10:52:10.846Z,20.81
2022-09-16T10:54:38.984Z,20.66
2022-09-16T10:57:22.866Z,20.94
2022-09-16T10:59:58.920Z,20.89
2022-09-16T11:02:51.038Z,20.38
2022-09-16T11:05:27.079Z,20.16
2022-09-16T11:08:03.599Z,19.84
2022-09-16T11:10:41.773Z,20.69
2022-09-16T11:13:27.198Z,20.80
2022-09-16T11:16:12.187Z,21.04
2022-09-16T11:18:54.094Z,21.35
2022-09-16T11:21:40.580Z,22.22
2022-09-16T11:24:18.730Z,22.03
2022-09-16T11:26:56.028Z,21.32
2022-09-16T11:29:41.356Z,20.39
2022-09-16T11:32:17.400Z,19.77
2022-09-16T11:35:02.553Z,19.30
2022-09-16T11:37:39.510Z,18.44
2022-09-16T11:40:21.171Z,17.14
2022-09-16T11:42:58.394Z,16.10
2022-09-16T11:45:41.641Z,15.51
2022-09-16T11:48:32.578Z,15.74
2022-09-16T11:51:09.590Z,15.30
2022-09-16T11:54:04.219Z,15.33
2022-09-16T11:56:44.481Z,15.74
2022-09-16T11:59:19.283Z,16.02
2022-09-16T12:01:52.084Z,16.10
2022-09-16T12:04:26.919Z,16.56
2022-09-16T12:07:00.978Z,17.44
2022-09-16T12:09:40.580Z,18.26
2022-09-16T12:12:14.674Z,18.99
2022-09-16T12:14:46.283Z,19.47
2022-09-16T12:17:21.111Z,20.05
2022-09-16T12:20:01.570Z,19.65
2022-09-16T12:22:34.894Z,20.11
2022-09-16T12:25:08.261Z,20.67
2022-09-16T12:27:45.563Z,19.88
2022-09-16T12:30:17.591Z,19.33
2022-09-16T12:32:57.100Z,18.94
2022-09-16T12:35:27.357Z,18.75
2022-09-16T12:37:57.473Z,18.40
2022-09-16T12:40:27.918Z,18.77
2022-09-16T12:43:38.516Z,19.63
2022-09-16T12:46:24.036Z,20.08
2022-09-16T12:49:21.068Z,20.98
2022-09-16T12:52:13.815Z,21.14
2022-09-16T12:55:17.657Z,20.72
2022-09-16T12:58:03.628Z,21.06
2022-09-16T13:00:42.445Z,21.37
2022-09-16T13:03:22.022Z,20.75
2022-09-16T13:05:52.338Z,20.63
2022-09-16T13:08:24.106Z,20.69
2022-09-16T13:11:35.519Z,21.01
2022-09-16T13:13:52.065Z,20.43
2022-09-16T13:16:35.229Z,19.41
2022-09-16T13:19:35.410Z,18.99
2022-09-16T13:22:18.307Z,19.36
2022-09-16T13:24:50.541Z,19.30
2022-09-16T13:27:27.259Z,20.12
2022-09-16T13:30:17.907Z,19.78
2022-09-16T13:32:58.129Z,19.30
2022-09-16T13:35:40.142Z,18.68
2022-09-16T13:38:26.626Z,18.18
2022-09-16T13:40:57.250Z,17.90
2022-09-16T13:43:38.461Z,17.67
2022-09-16T13:46:08.693Z,17.23
2022-09-16T13:48:42.685Z,16.68
2022-09-16T13:51:21.786Z,16.25
2022-09-16T13:53:52.357Z,15.95
2022-09-16T13:56:48.816Z,15.85
2022-09-16T13:59:30.136Z,15.88
2022-09-16T14:02:13.211Z,15.60
2022-09-16T14:04:59.637Z,15.67
2022-09-16T14:07:39.863Z,15.95
2022-09-16T14:10:14.893Z,16.21
2022-09-16T14:12:54.576Z,16.60
2022-09-16T14:15:23.287Z,16.49
2022-09-16T14:17:56.692Z,16.62
2022-09-16T14:20:26.439Z,16.51
2022-09-16T14:23:06.872Z,16.62
2022-09-16T14:25:36.473Z,16.93
2022-09-16T14:28:08.016Z,17.07
2022-09-16T14:30:36.173Z,17.04
2022-09-16T14:33:04.508Z,16.94
2022-09-16T14:35:32.490Z,17.26
2022-09-16T14:38:03.907Z,17.29
2022-09-16T14:40:33.305Z,17.39
2022-09-16T14:43:04.557Z,17.45
2022-09-16T14:45:34.036Z,17.52
2022-09-16T14:48:06.840Z,17.36
2022-09-16T14:50:39.672Z,17.38
2022-09-16T14:53:26.931Z,17.10
2022-09-16T14:56:04.740Z,17.07
2022-09-16T14:58:34.643Z,16.94
2022-09-16T15:01:10.339Z,17.09
2022-09-16T15:03:48.554Z,17.33
2022-09-16T15:06:20.177Z,17.59
2022-09-16T15:08:52.519Z,18.10
2022-09-16T15:11:47.231Z,18.51
2022-09-16T15:14:15.495Z,18.30
2022-09-16T15:16:48.799Z,17.94
2022-09-16T15:19:21.261Z,17.53
2022-09-16T15:21:49.979Z,17.02
2022-09-16T15:24:22.958Z,16.64
2022-09-16T15:26:53.693Z,16.34
2022-09-16T15:29:33.973Z,16.01
2022-09-16T15:32:19.363Z,15.56
2022-09-16T15:34:47.797Z,14.91
2022-09-16T15:37:31.028Z,14.26
2022-09-16T15:40:10.511Z,14.09
2022-09-16T15:42:40.043Z,13.86
2022-09-16T15:45:17.732Z,13.55
2022-09-16T15:47:56.393Z,13.33
2022-09-16T15:50:25.983Z,13.06
2022-09-16T15:52:56.515Z,12.96
2022-09-16T15:55:32.758Z,13.02
2022-09-16T15:58:06.540Z,13.19
2022-09-16T16:00:59.223Z,13.23
2022-09-16T16:03:29.459Z,13.28
2022-09-16T16:05:57.520Z,13.47
2022-09-16T16:08:41.469Z,13.38
2022-09-16T16:11:11.233Z,13.46
2022-09-16T16:13:41.268Z,13.69
2022-09-16T16:16:10.173Z,13.63
2022-09-16T16:18:39.207Z,13.71
2022-09-16T16:21:08.754Z,13.70
2022-09-16T16:23:37.591Z,13.64
2022-09-16T16:26:06.629Z,13.57
2022-09-16T16:28:34.621Z,13.61
2022-09-16T16:31:15.615Z,13.55
2022-09-16T16:33:45.620Z,13.44
2022-09-16T16:36:14.820Z,13.29
2022-09-16T16:38:43.663Z,13.16
2022-09-16T16:41:13.463Z,13.12
2022-09-16T16:43:41.565Z,12.84
2022-09-16T16:46:09.611Z,12.90
2022-09-16T16:48:39.506Z,12.68
2022-09-16T16:51:10.607Z,12.39
2022-09-16T16:53:39.247Z,12.33
2022-09-16T16:56:13.853Z,12.20
2022-09-16T16:58:43.496Z,12.30
2022-09-16T17:01:12.966Z,12.32
2022-09-16T17:03:44.760Z,12.33
2022-09-16T17:06:13.389Z,12.56
2022-09-16T17:08:41.393Z,12.33
2022-09-16T17:11:10.913Z,12.31
2022-09-16T17:13:40.589Z,12.30
2022-09-16T17:16:08.867Z,12.18
2022-09-16T17:18:38.218Z,12.13
2022-09-16T17:21:10.209Z,12.05
2022-09-16T17:23:39.394Z,11.87
2022-09-16T17:26:09.115Z,11.70
2022-09-16T17:28:38.389Z,11.52
2022-09-16T17:31:09.860Z,11.35
2022-09-16T17:33:38.438Z,11.26
2022-09-16T17:36:09.588Z,11.15
2022-09-16T17:38:37.620Z,11.02
2022-09-16T17:41:07.358Z,10.88
2022-09-16T17:43:35.809Z,10.76
2022-09-16T17:46:06.084Z,10.63
2022-09-16T17:48:36.357Z,10.51
2022-09-16T17:51:04.785Z,10.41
2022-09-16T17:53:35.035Z,10.31
2022-09-16T17:56:04.784Z,10.23
2022-09-16T17:58:32.982Z,10.13
2022-09-16T18:01:08.934Z,10.07
2022-09-16T18:03:37.485Z,10.01
2022-09-16T18:06:07.356Z,9.99
2022-09-16T18:08:37.047Z,9.94
2022-09-16T18:11:05.453Z,9.92
2022-09-16T18:13:33.519Z,9.90
2022-09-16T18:16:05.972Z,9.88
2022-09-16T18:18:34.002Z,9.87
2022-09-16T18:21:01.938Z,9.88
2022-09-16T18:23:30.252Z,9.89
2022-09-16T18:26:04.896Z,9.84
2022-09-16T18:28:38.741Z,9.84
2022-09-16T18:31:23.162Z,9.78
2022-09-16T18:33:51.552Z,9.74
2022-09-16T18:36:22.015Z,9.72
2022-09-16T18:38:51.527Z,9.71
2022-09-16T18:41:23.037Z,9.69
2022-09-16T18:43:54.411Z,9.66
2022-09-16T18:46:26.518Z,9.63
2022-09-16T18:48:55.630Z,9.65
2022-09-16T18:51:25.421Z,9.63
2022-09-16T18:53:54.184Z,9.63
2022-09-16T18:56:25.489Z,9.56
2022-09-16T18:59:19.944Z,9.57
2022-09-16T19:01:43.976Z,9.59
2022-09-16T19:04:13.314Z,9.56
2022-09-16T19:06:43.463Z,9.55
2022-09-16T19:09:13.578Z,9.57
2022-09-16T19:11:43.680Z,9.53
2022-09-16T19:14:14.034Z,9.51
2022-09-16T19:16:43.730Z,9.51
2022-09-16T19:19:13.900Z,9.51
2022-09-16T19:21:42.480Z,9.52
2022-09-16T19:24:14.402Z,9.53
2022-09-16T19:26:45.124Z,9.53
2022-09-16T19:29:15.311Z,9.58
2022-09-16T19:31:45.870Z,9.59
2022-09-16T19:34:15.210Z,9.56
2022-09-16T19:36:44.010Z,9.50
2022-09-16T19:39:13.239Z,9.43
2022-09-16T19:41:42.683Z,9.34
2022-09-16T19:44:14.817Z,9.26
2022-09-16T19:46:44.618Z,9.19
2022-09-16T19:49:15.858Z,9.16
2022-09-16T19:51:44.039Z,9.07
2022-09-16T19:54:12.533Z,9.00
2022-09-16T19:56:40.978Z,8.92
2022-09-16T19:59:09.803Z,8.87
2022-09-16T20:01:39.192Z,8.80
2022-09-16T20:04:09.348Z,8.73
2022-09-16T20:06:39.028Z,8.69
2022-09-16T20:09:11.379Z,8.66
2022-09-16T20:11:41.714Z,8.65
2022-09-16T20:14:14.369Z,8.63
2022-09-16T20:16:43.879Z,8.62
2022-09-16T20:19:14.825Z,8.61
2022-09-16T20:21:43.195Z,8.64
2022-09-16T20:24:15.662Z,8.64
2022-09-16T20:26:43.713Z,8.61
2022-09-16T20:29:11.901Z,8.61
2022-09-16T20:31:39.992Z,8.63
2022-09-16T20:34:10.857Z,8.68
2022-09-16T20:36:40.196Z,8.69
2022-09-16T20:39:09.653Z,8.67
2022-09-16T20:41:38.873Z,8.63
2022-09-16T20:44:07.472Z,8.60
2022-09-16T20:46:38.609Z,8.61
2022-09-16T20:49:14.334Z,8.57
2022-09-16T20:51:42.622Z,8.50
2022-09-16T20:54:12.580Z,8.56
2022-09-16T20:56:42.720Z,8.56
2022-09-16T20:59:12.399Z,8.56
2022-09-16T21:01:41.833Z,8.50
2022-09-16T21:04:13.626Z,8.45
2022-09-16T21:06:42.091Z,8.39
2022-09-16T21:09:12.453Z,8.32
2022-09-16T21:11:45.043Z,8.26
2022-09-16T21:14:15.969Z,8.22
2022-09-16T21:16:45.516Z,8.16
2022-09-16T21:19:15.439Z,8.18
2022-09-16T21:21:44.589Z,8.33
2022-09-16T21:24:13.380Z,8.37
2022-09-16T21:26:42.287Z,8.38
2022-09-16T21:29:12.243Z,8.36
2022-09-16T21:31:40.853Z,8.33
2022-09-16T21:34:13.471Z,8.26
2022-09-16T21:36:44.288Z,8.22
2022-09-16T21:39:13.449Z,8.35
2022-09-16T21:41:41.971Z,8.30
2022-09-16T21:44:10.089Z,8.20
2022-09-16T21:46:42.436Z,8.12
2022-09-16T21:49:16.866Z,8.12
2022-09-16T21:51:46.409Z,8.12
2022-09-16T21:54:19.045Z,8.07
2022-09-16T21:56:48.056Z,8.00
2022-09-16T21:59:16.088Z,7.97
2022-09-16T22:01:44.337Z,7.90
2022-09-16T22:04:14.821Z,7.91
2022-09-16T22:06:43.759Z,7.89
2022-09-16T22:09:13.395Z,7.82
2022-09-16T22:11:42.405Z,7.78
2022-09-16T22:14:11.584Z,7.72
2022-09-16T22:16:40.623Z,7.71
2022-09-16T22:19:11.089Z,7.78
2022-09-16T22:21:42.997Z,7.75
2022-09-16T22:24:12.873Z,7.74
2022-09-16T22:26:41.055Z,7.67
2022-09-16T22:29:09.409Z,7.66
2022-09-16T22:31:39.538Z,7.64
2022-09-16T22:34:07.829Z,7.63
2022-09-16T22:36:37.120Z,7.65
2022-09-16T22:39:07.643Z,7.67
2022-09-16T22:41:36.892Z,7.64
2022-09-16T22:44:04.945Z,7.60
2022-09-16T22:46:34.542Z,7.52
2022-09-16T22:49:02.667Z,7.49
2022-09-16T22:51:30.717Z,7.49
2022-09-16T22:53:58.998Z,7.53
2022-09-16T22:56:31.652Z,7.52
2022-09-16T22:59:02.638Z,7.50
2022-09-16T23:01:32.995Z,7.49
2022-09-16T23:04:02.853Z,7.62
2022-09-16T23:06:31.531Z,7.60
2022-09-16T23:09:00.921Z,7.52
2022-09-16T23:11:30.924Z,7.45
2022-09-16T23:13:59.405Z,7.41
2022-09-16T23:16:30.936Z,7.37
2022-09-16T23:19:00.842Z,7.34
2022-09-16T23:21:29.304Z,7.26
2022-09-16T23:24:00.279Z,7.24
2022-09-16T23:26:30.130Z,7.18
2022-09-16T23:29:00.425Z,7.16
2022-09-16T23:31:32.049Z,7.13
2022-09-16T23:34:01.213Z,7.09
2022-09-16T23:36:29.661Z,7.07
2022-09-16T23:38:58.413Z,7.08
2022-09-16T23:41:27.445Z,7.09
2022-09-16T23:43:56.651Z,7.06
2022-09-16T23:46:27.131Z,6.99
2022-09-16T23:48:56.764Z,6.99
2022-09-16T23:51:28.523Z,7.02
2022-09-16T23:53:58.072Z,6.98
2022-09-16T23:56:29.733Z,7.01
2022-09-16T23:59:00.546Z,7.01
